Terminal Aerodrome Forecast
Issued by NWS Brownsville, TX

Home | Current Version | Previous Version | Text Only | Print | Product List | Glossary On
Versions: 1 2 3 4 5 6 7 8 9 10 11 12 13 14 15 16 17
000
FTUS44 KBRO 220656 AAA
TAFBRO
TAF AMD
KBRO 220656Z 2207/2306 17006KT P6SM BKN014
      TEMPO 2207/2211 BKN009
     FM221200 34008KT P6SM BKN025
     FM221700 02012G17KT P6SM BKN040
     FM222000 04011G17KT P6SM SCT040 SCT100
     FM230200 04004KT P6SM SCT100=

USA.gov is the U.S. government's official web portal to all federal, state and local government web resources and services.